createdAt,value
2023-02-23T05:06:39.232Z,100776.72
2023-02-23T05:12:47.122Z,100774.94
2023-02-23T05:18:49.884Z,100786.22
2023-02-23T05:24:52.797Z,100790.06
2023-02-23T05:30:55.508Z,100809.47
2023-02-23T05:36:58.185Z,100817.09
2023-02-23T05:43:00.684Z,100826.84
2023-02-23T05:49:03.437Z,100845.03
2023-02-23T05:55:07.364Z,100854.59
2023-02-23T06:01:09.616Z,100862.75
2023-02-23T06:07:13.744Z,100875.06
2023-02-23T06:13:16.577Z,100852.13
2023-02-23T06:19:18.768Z,100890.63
2023-02-23T06:25:21.498Z,100901.75
2023-02-23T06:31:25.024Z,100908.91
2023-02-23T06:37:27.776Z,100913.41
2023-02-23T06:43:31.701Z,100908.97
2023-02-23T06:49:34.489Z,100917.19
2023-02-23T06:55:36.833Z,100925.13
2023-02-23T07:01:38.969Z,100928.25
2023-02-23T07:07:41.879Z,100930.41
2023-02-23T07:13:44.767Z,100929.72
2023-02-23T07:19:48.481Z,100918.97
2023-02-23T07:25:56.774Z,100935.81
2023-02-23T07:31:58.871Z,100944.97
2023-02-23T07:38:03.653Z,100943.16
2023-02-23T07:44:06.077Z,100955.50
2023-02-23T07:50:10.254Z,100980.22
2023-02-23T07:56:13.514Z,100979.88
2023-02-23T08:02:16.595Z,100987.69
2023-02-23T08:08:20.773Z,100997.16
2023-02-23T08:14:24.215Z,100992.31
2023-02-23T08:20:30.209Z,100999.94
2023-02-23T08:26:38.422Z,101005.09
2023-02-23T08:32:41.658Z,100991.38
2023-02-23T08:38:44.272Z,101017.03
2023-02-23T08:44:46.726Z,101010.38
2023-02-23T08:50:51.072Z,101015.63
2023-02-23T08:56:56.225Z,101031.41
2023-02-23T09:02:59.374Z,101021.38
2023-02-23T09:09:02.152Z,101034.72
2023-02-23T09:15:05.877Z,101022.91
2023-02-23T09:21:19.384Z,101028.94
2023-02-23T09:27:23.577Z,101038.59
2023-02-23T09:33:26.664Z,101045.31
2023-02-23T09:39:38.144Z,101052.19
2023-02-23T09:45:43.638Z,101069.03
2023-02-23T09:51:55.589Z,101061.16
2023-02-23T09:58:10.853Z,101069.06
2023-02-23T10:04:31.380Z,101067.34
2023-02-23T10:10:51.166Z,101076.03
2023-02-23T10:17:12.066Z,101078.91
2023-02-23T10:23:23.088Z,101073.22
2023-02-23T10:29:46.777Z,101078.94
2023-02-23T10:36:11.120Z,101082.84
2023-02-23T10:42:20.163Z,101069.97
2023-02-23T10:48:27.819Z,101078.84
2023-02-23T10:54:45.902Z,101071.47
2023-02-23T11:00:52.776Z,101074.81
2023-02-23T11:07:09.501Z,101076.59
2023-02-23T11:13:26.624Z,101074.69
2023-02-23T11:19:37.764Z,101067.88
2023-02-23T11:25:45.502Z,101064.44
2023-02-23T11:31:55.088Z,101078.72
2023-02-23T11:37:58.793Z,101077.41
2023-02-23T11:44:06.352Z,101085.53
2023-02-23T11:50:24.003Z,101086.34
2023-02-23T11:56:28.013Z,101090.31
2023-02-23T12:02:32.357Z,101097.72
2023-02-23T12:08:40.746Z,101091.72
2023-02-23T12:15:00.469Z,101086.25
2023-02-23T12:21:32.692Z,101094.38
2023-02-23T12:27:34.741Z,101088.38
2023-02-23T12:33:46.613Z,101084.94
2023-02-23T12:39:56.342Z,101098.91
2023-02-23T12:46:16.034Z,101086.25
2023-02-23T12:52:29.677Z,101113.34
2023-02-23T12:58:40.527Z,101099.38
2023-02-23T13:04:58.459Z,101106.50
2023-02-23T13:11:21.584Z,101108.31
2023-02-23T13:17:59.300Z,101117.31
2023-02-23T13:24:19.512Z,101113.28
2023-02-23T13:30:22.790Z,101119.06
2023-02-23T13:36:27.866Z,101123.75
2023-02-23T13:42:46.456Z,101116.59
2023-02-23T13:49:02.085Z,101118.22
2023-02-23T13:55:05.656Z,101135.03
2023-02-23T14:01:39.799Z,101124.22
2023-02-23T14:07:45.862Z,101125.91
2023-02-23T14:14:00.476Z,101129.56
2023-02-23T14:20:13.277Z,101125.84
2023-02-23T14:26:32.059Z,101119.56
2023-02-23T14:32:43.214Z,101125.06
2023-02-23T14:38:48.422Z,101127.75
2023-02-23T14:44:52.674Z,101114.59
2023-02-23T14:51:17.384Z,101114.78
2023-02-23T14:57:21.511Z,101113.88
2023-02-23T15:03:23.896Z,101106.75
2023-02-23T15:09:30.939Z,101128.44
2023-02-23T15:15:34.184Z,101121.34
2023-02-23T15:21:38.572Z,101116.59
2023-02-23T15:27:44.432Z,101126.06
2023-02-23T15:33:51.084Z,101120.72
2023-02-23T15:40:11.382Z,101122.22
2023-02-23T15:46:24.717Z,101135.41
2023-02-23T15:52:27.108Z,101131.13
2023-02-23T15:58:33.173Z,101134.31
2023-02-23T16:04:44.514Z,101144.78
2023-02-23T16:10:47.983Z,101143.28
2023-02-23T16:17:10.000Z,101158.22
2023-02-23T16:23:41.082Z,101151.88
2023-02-23T16:29:43.856Z,101155.28
2023-02-23T16:35:50.878Z,101155.06
2023-02-23T16:42:00.199Z,101157.53
2023-02-23T16:48:04.412Z,101175.81
2023-02-23T16:54:08.566Z,101170.81
2023-02-23T17:00:15.125Z,101174.41
2023-02-23T17:06:22.070Z,101168.19
2023-02-23T17:12:26.895Z,101179.47
2023-02-23T17:18:32.334Z,101182.34
2023-02-23T17:24:34.769Z,101178.09
2023-02-23T17:30:43.042Z,101186.06
2023-02-23T17:36:48.711Z,101186.13
2023-02-23T17:43:00.990Z,101190.03
2023-02-23T17:49:03.963Z,101194.16
2023-02-23T17:55:07.204Z,101190.97
2023-02-23T18:01:16.553Z,101190.13
2023-02-23T18:07:21.764Z,101192.72
2023-02-23T18:13:33.655Z,101201.56
2023-02-23T18:19:39.344Z,101192.72
2023-02-23T18:25:42.201Z,101192.16
2023-02-23T18:31:49.969Z,101192.88
2023-02-23T18:37:52.297Z,101195.72
2023-02-23T18:43:55.551Z,101187.06
